sensor_id;sensor_type;location;lat;lon;timestamp;P1;durP1;ratioP1;P2;durP2;ratioP2
48925;SDS011;39838;59.938;30.642;2023-04-24T00:01:03;12.30;;;5.75;;
48925;SDS011;39838;59.938;30.642;2023-04-24T00:03:32;13.82;;;5.53;;
48925;SDS011;39838;59.938;30.642;2023-04-24T00:06:00;11.52;;;5.78;;
48925;SDS011;39838;59.938;30.642;2023-04-24T00:08:27;9.98;;;5.38;;
48925;SDS011;39838;59.938;30.642;2023-04-24T00:10:55;11.75;;;5.57;;
48925;SDS011;39838;59.938;30.642;2023-04-24T00:13:22;15.23;;;5.03;;
48925;SDS011;39838;59.938;30.642;2023-04-24T00:15:49;11.45;;;5.45;;
48925;SDS011;39838;59.938;30.642;2023-04-24T00:18:18;13.13;;;5.60;;
48925;SDS011;39838;59.938;30.642;2023-04-24T00:20:45;11.35;;;5.57;;
48925;SDS011;39838;59.938;30.642;2023-04-24T00:23:12;13.10;;;5.45;;
48925;SDS011;39838;59.938;30.642;2023-04-24T00:25:39;12.27;;;5.28;;
48925;SDS011;39838;59.938;30.642;2023-04-24T00:28:07;13.85;;;5.88;;
48925;SDS011;39838;59.938;30.642;2023-04-24T00:30:34;13.82;;;5.28;;
48925;SDS011;39838;59.938;30.642;2023-04-24T00:33:01;10.73;;;5.75;;
48925;SDS011;39838;59.938;30.642;2023-04-24T00:35:30;15.65;;;5.72;;
48925;SDS011;39838;59.938;30.642;2023-04-24T00:37:57;16.85;;;5.88;;
48925;SDS011;39838;59.938;30.642;2023-04-24T00:40:24;12.15;;;5.57;;
48925;SDS011;39838;59.938;30.642;2023-04-24T00:42:54;11.25;;;5.35;;
48925;SDS011;39838;59.938;30.642;2023-04-24T00:45:22;11.23;;;6.05;;
48925;SDS011;39838;59.938;30.642;2023-04-24T00:47:49;13.77;;;5.85;;
48925;SDS011;39838;59.938;30.642;2023-04-24T00:50:20;16.10;;;5.78;;
48925;SDS011;39838;59.938;30.642;2023-04-24T00:52:49;9.65;;;5.95;;
48925;SDS011;39838;59.938;30.642;2023-04-24T00:55:16;9.80;;;5.88;;
48925;SDS011;39838;59.938;30.642;2023-04-24T00:57:44;12.57;;;5.72;;
48925;SDS011;39838;59.938;30.642;2023-04-24T01:00:12;11.93;;;5.90;;
48925;SDS011;39838;59.938;30.642;2023-04-24T01:02:42;13.38;;;6.38;;
48925;SDS011;39838;59.938;30.642;2023-04-24T01:05:11;15.55;;;6.25;;
48925;SDS011;39838;59.938;30.642;2023-04-24T01:07:40;13.13;;;6.28;;
48925;SDS011;39838;59.938;30.642;2023-04-24T01:10:12;13.07;;;6.32;;
48925;SDS011;39838;59.938;30.642;2023-04-24T01:12:40;10.98;;;6.07;;
48925;SDS011;39838;59.938;30.642;2023-04-24T01:15:08;14.32;;;6.63;;
48925;SDS011;39838;59.938;30.642;2023-04-24T01:17:36;13.95;;;6.60;;
48925;SDS011;39838;59.938;30.642;2023-04-24T01:20:04;12.88;;;6.38;;
48925;SDS011;39838;59.938;30.642;2023-04-24T01:22:34;11.43;;;6.43;;
48925;SDS011;39838;59.938;30.642;2023-04-24T01:25:02;14.43;;;6.72;;
48925;SDS011;39838;59.938;30.642;2023-04-24T01:27:32;14.85;;;6.60;;
48925;SDS011;39838;59.938;30.642;2023-04-24T01:29:59;12.07;;;6.20;;
48925;SDS011;39838;59.938;30.642;2023-04-24T01:32:27;11.23;;;6.60;;
48925;SDS011;39838;59.938;30.642;2023-04-24T01:34:54;15.18;;;6.78;;
48925;SDS011;39838;59.938;30.642;2023-04-24T01:37:22;15.38;;;6.95;;
48925;SDS011;39838;59.938;30.642;2023-04-24T01:39:51;14.80;;;7.13;;
48925;SDS011;39838;59.938;30.642;2023-04-24T01:42:18;16.77;;;6.75;;
48925;SDS011;39838;59.938;30.642;2023-04-24T01:44:45;11.38;;;6.53;;
48925;SDS011;39838;59.938;30.642;2023-04-24T01:47:13;10.82;;;6.50;;
48925;SDS011;39838;59.938;30.642;2023-04-24T01:49:40;14.05;;;6.55;;
48925;SDS011;39838;59.938;30.642;2023-04-24T01:52:08;14.73;;;6.68;;
48925;SDS011;39838;59.938;30.642;2023-04-24T01:54:35;14.85;;;6.38;;
48925;SDS011;39838;59.938;30.642;2023-04-24T01:57:04;10.68;;;6.10;;
48925;SDS011;39838;59.938;30.642;2023-04-24T01:59:32;11.70;;;6.30;;
48925;SDS011;39838;59.938;30.642;2023-04-24T02:02:01;12.98;;;6.00;;
48925;SDS011;39838;59.938;30.642;2023-04-24T02:04:29;14.43;;;6.57;;
48925;SDS011;39838;59.938;30.642;2023-04-24T02:06:56;14.60;;;6.45;;
48925;SDS011;39838;59.938;30.642;2023-04-24T02:09:23;15.55;;;6.60;;
48925;SDS011;39838;59.938;30.642;2023-04-24T02:11:50;10.52;;;6.20;;
48925;SDS011;39838;59.938;30.642;2023-04-24T02:14:19;10.50;;;5.70;;
48925;SDS011;39838;59.938;30.642;2023-04-24T02:16:46;11.52;;;6.38;;
48925;SDS011;39838;59.938;30.642;2023-04-24T02:19:13;12.05;;;6.20;;
48925;SDS011;39838;59.938;30.642;2023-04-24T02:21:40;11.38;;;6.43;;
48925;SDS011;39838;59.938;30.642;2023-04-24T02:24:08;13.90;;;6.43;;
48925;SDS011;39838;59.938;30.642;2023-04-24T02:26:35;12.02;;;6.70;;
48925;SDS011;39838;59.938;30.642;2023-04-24T02:29:02;10.32;;;6.63;;
48925;SDS011;39838;59.938;30.642;2023-04-24T02:31:31;12.68;;;5.75;;
48925;SDS011;39838;59.938;30.642;2023-04-24T02:33:59;13.65;;;6.70;;
48925;SDS011;39838;59.938;30.642;2023-04-24T02:36:26;14.45;;;6.82;;
48925;SDS011;39838;59.938;30.642;2023-04-24T02:38:53;17.60;;;7.10;;
48925;SDS011;39838;59.938;30.642;2023-04-24T02:41:21;14.73;;;6.90;;
48925;SDS011;39838;59.938;30.642;2023-04-24T02:43:48;13.43;;;7.13;;
48925;SDS011;39838;59.938;30.642;2023-04-24T02:46:15;13.88;;;7.13;;
48925;SDS011;39838;59.938;30.642;2023-04-24T02:48:44;16.05;;;7.10;;
48925;SDS011;39838;59.938;30.642;2023-04-24T02:51:11;14.50;;;7.70;;
48925;SDS011;39838;59.938;30.642;2023-04-24T02:53:38;16.90;;;7.45;;
48925;SDS011;39838;59.938;30.642;2023-04-24T02:56:05;15.55;;;6.97;;
48925;SDS011;39838;59.938;30.642;2023-04-24T02:58:32;15.25;;;7.05;;
48925;SDS011;39838;59.938;30.642;2023-04-24T03:01:00;12.98;;;7.05;;
48925;SDS011;39838;59.938;30.642;2023-04-24T03:03:28;18.25;;;6.90;;
48925;SDS011;39838;59.938;30.642;2023-04-24T03:05:56;16.05;;;7.20;;
48925;SDS011;39838;59.938;30.642;2023-04-24T03:08:24;14.82;;;6.88;;
48925;SDS011;39838;59.938;30.642;2023-04-24T03:10:51;15.98;;;7.15;;
48925;SDS011;39838;59.938;30.642;2023-04-24T03:13:18;17.73;;;6.93;;
48925;SDS011;39838;59.938;30.642;2023-04-24T03:15:45;16.88;;;7.53;;
48925;SDS011;39838;59.938;30.642;2023-04-24T03:18:12;17.00;;;7.13;;
48925;SDS011;39838;59.938;30.642;2023-04-24T03:20:40;14.68;;;6.80;;
48925;SDS011;39838;59.938;30.642;2023-04-24T03:23:08;12.50;;;7.00;;
48925;SDS011;39838;59.938;30.642;2023-04-24T03:25:35;15.10;;;7.35;;
48925;SDS011;39838;59.938;30.642;2023-04-24T03:28:03;15.02;;;6.60;;
48925;SDS011;39838;59.938;30.642;2023-04-24T03:30:30;17.20;;;6.75;;
48925;SDS011;39838;59.938;30.642;2023-04-24T03:32:57;14.57;;;6.65;;
48925;SDS011;39838;59.938;30.642;2023-04-24T03:35:24;15.27;;;6.78;;
48925;SDS011;39838;59.938;30.642;2023-04-24T03:37:51;13.98;;;7.05;;
48925;SDS011;39838;59.938;30.642;2023-04-24T03:40:20;14.88;;;6.80;;
48925;SDS011;39838;59.938;30.642;2023-04-24T03:42:47;13.50;;;6.55;;
48925;SDS011;39838;59.938;30.642;2023-04-24T03:45:14;13.45;;;6.57;;
48925;SDS011;39838;59.938;30.642;2023-04-24T03:47:41;15.13;;;6.30;;
48925;SDS011;39838;59.938;30.642;2023-04-24T03:50:09;19.85;;;6.40;;
48925;SDS011;39838;59.938;30.642;2023-04-24T03:52:36;16.48;;;6.60;;
48925;SDS011;39838;59.938;30.642;2023-04-24T03:55:04;13.50;;;6.20;;
48925;SDS011;39838;59.938;30.642;2023-04-24T03:57:33;11.52;;;6.47;;
48925;SDS011;39838;59.938;30.642;2023-04-24T04:00:00;16.27;;;6.20;;
48925;SDS011;39838;59.938;30.642;2023-04-24T04:02:31;17.15;;;6.30;;
48925;SDS011;39838;59.938;30.642;2023-04-24T04:04:58;12.43;;;6.18;;
48925;SDS011;39838;59.938;30.642;2023-04-24T04:07:25;15.52;;;6.20;;
48925;SDS011;39838;59.938;30.642;2023-04-24T04:09:52;13.60;;;6.00;;
48925;SDS011;39838;59.938;30.642;2023-04-24T04:12:19;11.48;;;5.55;;
48925;SDS011;39838;59.938;30.642;2023-04-24T04:14:48;19.90;;;5.80;;
48925;SDS011;39838;59.938;30.642;2023-04-24T04:17:15;23.77;;;6.10;;
48925;SDS011;39838;59.938;30.642;2023-04-24T04:19:43;12.38;;;5.80;;
48925;SDS011;39838;59.938;30.642;2023-04-24T04:22:10;13.73;;;6.20;;
48925;SDS011;39838;59.938;30.642;2023-04-24T04:24:37;9.57;;;5.30;;
48925;SDS011;39838;59.938;30.642;2023-04-24T04:27:06;17.65;;;5.93;;
48925;SDS011;39838;59.938;30.642;2023-04-24T04:29:33;12.68;;;5.82;;
48925;SDS011;39838;59.938;30.642;2023-04-24T04:32:02;12.75;;;5.47;;
48925;SDS011;39838;59.938;30.642;2023-04-24T04:34:30;14.70;;;5.55;;
48925;SDS011;39838;59.938;30.642;2023-04-24T04:36:58;14.40;;;5.43;;
48925;SDS011;39838;59.938;30.642;2023-04-24T04:39:27;14.00;;;5.55;;
48925;SDS011;39838;59.938;30.642;2023-04-24T04:41:55;16.90;;;5.75;;
48925;SDS011;39838;59.938;30.642;2023-04-24T04:44:22;11.27;;;5.43;;
48925;SDS011;39838;59.938;30.642;2023-04-24T04:46:49;13.90;;;5.70;;
48925;SDS011;39838;59.938;30.642;2023-04-24T04:49:20;10.23;;;4.90;;
48925;SDS011;39838;59.938;30.642;2023-04-24T04:51:49;13.35;;;5.22;;
48925;SDS011;39838;59.938;30.642;2023-04-24T04:54:16;12.77;;;5.78;;
48925;SDS011;39838;59.938;30.642;2023-04-24T04:56:43;15.93;;;5.35;;
48925;SDS011;39838;59.938;30.642;2023-04-24T04:59:10;10.52;;;5.03;;
48925;SDS011;39838;59.938;30.642;2023-04-24T05:01:38;11.45;;;5.32;;
48925;SDS011;39838;59.938;30.642;2023-04-24T05:04:05;12.48;;;5.60;;
48925;SDS011;39838;59.938;30.642;2023-04-24T05:06:34;15.63;;;5.75;;
48925;SDS011;39838;59.938;30.642;2023-04-24T05:09:01;13.18;;;5.15;;
48925;SDS011;39838;59.938;30.642;2023-04-24T05:11:29;12.98;;;5.65;;
48925;SDS011;39838;59.938;30.642;2023-04-24T05:13:56;14.95;;;5.40;;
48925;SDS011;39838;59.938;30.642;2023-04-24T05:16:23;14.38;;;5.78;;
48925;SDS011;39838;59.938;30.642;2023-04-24T05:18:50;12.63;;;5.47;;
48925;SDS011;39838;59.938;30.642;2023-04-24T05:21:18;13.57;;;5.25;;
48925;SDS011;39838;59.938;30.642;2023-04-24T05:23:46;16.95;;;5.38;;
48925;SDS011;39838;59.938;30.642;2023-04-24T05:26:13;17.10;;;5.53;;
48925;SDS011;39838;59.938;30.642;2023-04-24T05:28:41;13.95;;;4.97;;
48925;SDS011;39838;59.938;30.642;2023-04-24T05:31:08;13.38;;;5.18;;
48925;SDS011;39838;59.938;30.642;2023-04-24T05:33:35;13.30;;;5.10;;
48925;SDS011;39838;59.938;30.642;2023-04-24T05:36:03;12.95;;;4.88;;
48925;SDS011;39838;59.938;30.642;2023-04-24T05:38:31;14.65;;;5.03;;
48925;SDS011;39838;59.938;30.642;2023-04-24T05:40:59;13.27;;;5.00;;
48925;SDS011;39838;59.938;30.642;2023-04-24T05:43:27;13.13;;;5.43;;
48925;SDS011;39838;59.938;30.642;2023-04-24T05:45:54;12.32;;;5.05;;
48925;SDS011;39838;59.938;30.642;2023-04-24T05:48:21;10.80;;;4.85;;
48925;SDS011;39838;59.938;30.642;2023-04-24T05:50:48;14.27;;;5.03;;
48925;SDS011;39838;59.938;30.642;2023-04-24T05:53:16;14.50;;;5.05;;
48925;SDS011;39838;59.938;30.642;2023-04-24T05:55:43;12.70;;;5.43;;
48925;SDS011;39838;59.938;30.642;2023-04-24T05:58:12;11.55;;;4.95;;
48925;SDS011;39838;59.938;30.642;2023-04-24T06:00:39;11.95;;;5.10;;
48925;SDS011;39838;59.938;30.642;2023-04-24T06:03:08;14.70;;;5.40;;
48925;SDS011;39838;59.938;30.642;2023-04-24T06:05:35;13.10;;;5.00;;
48925;SDS011;39838;59.938;30.642;2023-04-24T06:08:03;11.70;;;4.88;;
48925;SDS011;39838;59.938;30.642;2023-04-24T06:10:30;15.27;;;5.60;;
48925;SDS011;39838;59.938;30.642;2023-04-24T06:12:57;10.82;;;4.40;;
48925;SDS011;39838;59.938;30.642;2023-04-24T06:15:28;13.15;;;4.95;;
48925;SDS011;39838;59.938;30.642;2023-04-24T06:17:56;10.60;;;4.97;;
48925;SDS011;39838;59.938;30.642;2023-04-24T06:20:24;11.95;;;4.88;;
48925;SDS011;39838;59.938;30.642;2023-04-24T06:22:51;12.80;;;4.95;;
48925;SDS011;39838;59.938;30.642;2023-04-24T06:25:19;59.90;;;7.47;;
48925;SDS011;39838;59.938;30.642;2023-04-24T06:27:46;23.27;;;5.28;;
48925;SDS011;39838;59.938;30.642;2023-04-24T06:30:14;17.58;;;4.93;;
48925;SDS011;39838;59.938;30.642;2023-04-24T06:32:42;14.50;;;4.72;;
48925;SDS011;39838;59.938;30.642;2023-04-24T06:35:10;12.60;;;4.60;;
48925;SDS011;39838;59.938;30.642;2023-04-24T06:37:38;12.15;;;4.70;;
48925;SDS011;39838;59.938;30.642;2023-04-24T06:40:06;9.60;;;5.60;;
48925;SDS011;39838;59.938;30.642;2023-04-24T06:42:34;12.23;;;4.63;;
48925;SDS011;39838;59.938;30.642;2023-04-24T06:45:01;14.75;;;4.75;;
48925;SDS011;39838;59.938;30.642;2023-04-24T06:47:33;17.58;;;5.32;;
48925;SDS011;39838;59.938;30.642;2023-04-24T06:50:01;16.95;;;5.22;;
48925;SDS011;39838;59.938;30.642;2023-04-24T06:52:30;23.27;;;5.20;;
48925;SDS011;39838;59.938;30.642;2023-04-24T06:54:59;15.55;;;4.78;;
48925;SDS011;39838;59.938;30.642;2023-04-24T06:57:30;16.98;;;4.75;;
48925;SDS011;39838;59.938;30.642;2023-04-24T06:59:58;19.50;;;4.65;;
48925;SDS011;39838;59.938;30.642;2023-04-24T07:02:25;13.43;;;4.72;;
48925;SDS011;39838;59.938;30.642;2023-04-24T07:04:52;15.60;;;4.90;;
48925;SDS011;39838;59.938;30.642;2023-04-24T07:07:21;19.67;;;4.60;;
48925;SDS011;39838;59.938;30.642;2023-04-24T07:09:48;21.15;;;5.40;;
48925;SDS011;39838;59.938;30.642;2023-04-24T07:12:16;12.55;;;4.80;;
48925;SDS011;39838;59.938;30.642;2023-04-24T07:14:46;10.25;;;4.40;;
48925;SDS011;39838;59.938;30.642;2023-04-24T07:17:13;15.20;;;4.72;;
48925;SDS011;39838;59.938;30.642;2023-04-24T07:19:40;13.73;;;4.35;;
48925;SDS011;39838;59.938;30.642;2023-04-24T07:22:08;13.98;;;4.72;;
48925;SDS011;39838;59.938;30.642;2023-04-24T07:24:38;13.45;;;4.72;;
48925;SDS011;39838;59.938;30.642;2023-04-24T07:27:05;13.63;;;4.63;;
48925;SDS011;39838;59.938;30.642;2023-04-24T07:29:32;19.90;;;4.45;;
48925;SDS011;39838;59.938;30.642;2023-04-24T07:32:00;11.75;;;4.40;;
48925;SDS011;39838;59.938;30.642;2023-04-24T07:34:28;34.63;;;4.32;;
48925;SDS011;39838;59.938;30.642;2023-04-24T07:36:55;103.95;;;8.00;;
48925;SDS011;39838;59.938;30.642;2023-04-24T07:39:22;33.30;;;4.85;;
48925;SDS011;39838;59.938;30.642;2023-04-24T07:41:51;15.38;;;4.20;;
48925;SDS011;39838;59.938;30.642;2023-04-24T07:44:18;17.95;;;4.07;;
48925;SDS011;39838;59.938;30.642;2023-04-24T07:46:46;23.98;;;4.68;;
48925;SDS011;39838;59.938;30.642;2023-04-24T07:49:13;19.05;;;4.82;;
48925;SDS011;39838;59.938;30.642;2023-04-24T07:51:40;37.60;;;4.93;;
48925;SDS011;39838;59.938;30.642;2023-04-24T07:54:08;38.20;;;5.10;;
48925;SDS011;39838;59.938;30.642;2023-04-24T07:56:35;42.45;;;5.82;;
48925;SDS011;39838;59.938;30.642;2023-04-24T07:59:05;64.97;;;6.10;;
48925;SDS011;39838;59.938;30.642;2023-04-24T08:01:32;55.15;;;5.53;;
48925;SDS011;39838;59.938;30.642;2023-04-24T08:04:00;102.78;;;7.38;;
48925;SDS011;39838;59.938;30.642;2023-04-24T08:06:27;47.30;;;5.00;;
48925;SDS011;39838;59.938;30.642;2023-04-24T08:08:55;43.83;;;5.10;;
48925;SDS011;39838;59.938;30.642;2023-04-24T08:11:23;125.20;;;9.50;;
48925;SDS011;39838;59.938;30.642;2023-04-24T08:13:51;52.25;;;5.75;;
48925;SDS011;39838;59.938;30.642;2023-04-24T08:16:19;55.33;;;5.30;;
48925;SDS011;39838;59.938;30.642;2023-04-24T08:18:46;35.15;;;5.82;;
48925;SDS011;39838;59.938;30.642;2023-04-24T08:21:14;33.60;;;4.53;;
48925;SDS011;39838;59.938;30.642;2023-04-24T08:23:42;33.92;;;4.70;;
48925;SDS011;39838;59.938;30.642;2023-04-24T08:26:09;25.00;;;5.00;;
48925;SDS011;39838;59.938;30.642;2023-04-24T08:28:37;20.48;;;3.95;;
48925;SDS011;39838;59.938;30.642;2023-04-24T08:31:04;16.15;;;3.75;;
48925;SDS011;39838;59.938;30.642;2023-04-24T08:33:33;91.30;;;6.55;;
48925;SDS011;39838;59.938;30.642;2023-04-24T08:36:01;37.45;;;4.30;;
48925;SDS011;39838;59.938;30.642;2023-04-24T08:38:29;57.42;;;6.38;;
48925;SDS011;39838;59.938;30.642;2023-04-24T08:40:57;59.65;;;5.40;;
48925;SDS011;39838;59.938;30.642;2023-04-24T08:43:26;36.45;;;4.53;;
48925;SDS011;39838;59.938;30.642;2023-04-24T08:45:55;22.42;;;3.47;;
48925;SDS011;39838;59.938;30.642;2023-04-24T08:48:23;24.95;;;3.90;;
48925;SDS011;39838;59.938;30.642;2023-04-24T08:50:51;54.70;;;6.35;;
48925;SDS011;39838;59.938;30.642;2023-04-24T08:53:19;35.15;;;4.88;;
48925;SDS011;39838;59.938;30.642;2023-04-24T08:55:47;31.45;;;3.88;;
48925;SDS011;39838;59.938;30.642;2023-04-24T08:58:15;26.20;;;4.10;;
48925;SDS011;39838;59.938;30.642;2023-04-24T09:00:43;18.60;;;4.05;;
48925;SDS011;39838;59.938;30.642;2023-04-24T09:03:13;26.17;;;4.30;;
48925;SDS011;39838;59.938;30.642;2023-04-24T09:05:41;12.50;;;3.72;;
48925;SDS011;39838;59.938;30.642;2023-04-24T09:08:13;29.02;;;4.57;;
48925;SDS011;39838;59.938;30.642;2023-04-24T09:10:40;18.17;;;3.92;;
48925;SDS011;39838;59.938;30.642;2023-04-24T09:13:08;15.35;;;3.47;;
48925;SDS011;39838;59.938;30.642;2023-04-24T09:15:36;17.90;;;3.70;;
48925;SDS011;39838;59.938;30.642;2023-04-24T09:18:04;21.27;;;4.15;;
48925;SDS011;39838;59.938;30.642;2023-04-24T09:20:31;22.25;;;4.20;;
48925;SDS011;39838;59.938;30.642;2023-04-24T09:23:01;20.40;;;5.07;;
48925;SDS011;39838;59.938;30.642;2023-04-24T09:25:32;20.00;;;4.15;;
48925;SDS011;39838;59.938;30.642;2023-04-24T09:28:01;17.77;;;4.38;;
48925;SDS011;39838;59.938;30.642;2023-04-24T09:30:29;24.83;;;4.55;;
48925;SDS011;39838;59.938;30.642;2023-04-24T09:33:12;14.68;;;3.90;;
48925;SDS011;39838;59.938;30.642;2023-04-24T09:35:40;14.38;;;4.10;;
48925;SDS011;39838;59.938;30.642;2023-04-24T09:38:09;14.70;;;3.70;;
48925;SDS011;39838;59.938;30.642;2023-04-24T09:40:38;15.43;;;3.88;;
48925;SDS011;39838;59.938;30.642;2023-04-24T09:43:09;17.48;;;4.40;;
48925;SDS011;39838;59.938;30.642;2023-04-24T09:45:38;25.33;;;4.45;;
48925;SDS011;39838;59.938;30.642;2023-04-24T09:48:07;17.50;;;4.20;;
48925;SDS011;39838;59.938;30.642;2023-04-24T09:50:36;12.52;;;4.00;;
48925;SDS011;39838;59.938;30.642;2023-04-24T09:53:04;14.23;;;3.85;;
48925;SDS011;39838;59.938;30.642;2023-04-24T09:55:35;24.23;;;4.53;;
48925;SDS011;39838;59.938;30.642;2023-04-24T09:58:11;12.30;;;4.30;;
48925;SDS011;39838;59.938;30.642;2023-04-24T10:00:38;19.70;;;4.43;;
48925;SDS011;39838;59.938;30.642;2023-04-24T10:03:06;17.83;;;4.40;;
48925;SDS011;39838;59.938;30.642;2023-04-24T10:05:34;29.05;;;4.72;;
48925;SDS011;39838;59.938;30.642;2023-04-24T10:08:02;11.38;;;3.72;;
48925;SDS011;39838;59.938;30.642;2023-04-24T10:10:32;10.23;;;3.90;;
48925;SDS011;39838;59.938;30.642;2023-04-24T10:13:03;15.73;;;4.30;;
48925;SDS011;39838;59.938;30.642;2023-04-24T10:15:32;12.52;;;3.90;;
48925;SDS011;39838;59.938;30.642;2023-04-24T10:17:59;30.63;;;4.55;;
48925;SDS011;39838;59.938;30.642;2023-04-24T10:20:27;17.25;;;4.40;;
48925;SDS011;39838;59.938;30.642;2023-04-24T10:22:57;19.13;;;4.20;;
48925;SDS011;39838;59.938;30.642;2023-04-24T10:25:25;27.58;;;4.90;;
48925;SDS011;39838;59.938;30.642;2023-04-24T10:27:55;22.63;;;5.05;;
48925;SDS011;39838;59.938;30.642;2023-04-24T10:30:27;17.00;;;4.65;;
48925;SDS011;39838;59.938;30.642;2023-04-24T10:32:55;18.20;;;4.30;;
48925;SDS011;39838;59.938;30.642;2023-04-24T10:35:22;18.48;;;4.20;;
48925;SDS011;39838;59.938;30.642;2023-04-24T10:37:54;20.95;;;4.45;;
48925;SDS011;39838;59.938;30.642;2023-04-24T10:40:25;19.75;;;4.05;;
48925;SDS011;39838;59.938;30.642;2023-04-24T10:42:56;10.55;;;4.22;;
48925;SDS011;39838;59.938;30.642;2023-04-24T10:45:23;14.15;;;4.55;;
48925;SDS011;39838;59.938;30.642;2023-04-24T10:47:53;16.73;;;4.43;;
48925;SDS011;39838;59.938;30.642;2023-04-24T10:50:22;16.77;;;3.90;;
48925;SDS011;39838;59.938;30.642;2023-04-24T10:52:50;11.45;;;3.90;;
48925;SDS011;39838;59.938;30.642;2023-04-24T10:58:08;8.63;;;3.80;;
48925;SDS011;39838;59.938;30.642;2023-04-24T11:00:36;11.55;;;3.78;;
48925;SDS011;39838;59.938;30.642;2023-04-24T11:03:05;10.30;;;3.65;;
48925;SDS011;39838;59.938;30.642;2023-04-24T11:08:23;10.30;;;3.72;;
48925;SDS011;39838;59.938;30.642;2023-04-24T11:16:38;17.73;;;3.90;;
48925;SDS011;39838;59.938;30.642;2023-04-24T11:19:18;14.15;;;4.07;;
48925;SDS011;39838;59.938;30.642;2023-04-24T11:21:50;10.95;;;3.85;;
48925;SDS011;39838;59.938;30.642;2023-04-24T11:24:28;8.15;;;3.92;;
48925;SDS011;39838;59.938;30.642;2023-04-24T11:26:58;10.35;;;3.83;;
48925;SDS011;39838;59.938;30.642;2023-04-24T11:32:14;10.85;;;3.90;;
48925;SDS011;39838;59.938;30.642;2023-04-24T11:34:47;11.60;;;3.92;;
48925;SDS011;39838;59.938;30.642;2023-04-24T11:37:15;14.77;;;4.50;;
48925;SDS011;39838;59.938;30.642;2023-04-24T11:39:43;13.70;;;3.85;;
48925;SDS011;39838;59.938;30.642;2023-04-24T11:42:10;19.67;;;4.10;;
48925;SDS011;39838;59.938;30.642;2023-04-24T11:44:40;14.77;;;4.28;;
48925;SDS011;39838;59.938;30.642;2023-04-24T11:47:08;16.73;;;4.35;;
48925;SDS011;39838;59.938;30.642;2023-04-24T11:49:36;16.05;;;4.25;;
48925;SDS011;39838;59.938;30.642;2023-04-24T11:52:05;7.32;;;3.70;;
48925;SDS011;39838;59.938;30.642;2023-04-24T11:54:32;10.55;;;3.80;;
48925;SDS011;39838;59.938;30.642;2023-04-24T11:56:59;17.08;;;4.20;;
48925;SDS011;39838;59.938;30.642;2023-04-24T11:59:34;8.13;;;4.28;;
48925;SDS011;39838;59.938;30.642;2023-04-24T12:02:02;10.25;;;3.60;;
48925;SDS011;39838;59.938;30.642;2023-04-24T12:04:37;19.77;;;4.00;;
48925;SDS011;39838;59.938;30.642;2023-04-24T12:07:07;15.48;;;3.85;;
48925;SDS011;39838;59.938;30.642;2023-04-24T12:09:41;16.13;;;3.92;;
48925;SDS011;39838;59.938;30.642;2023-04-24T12:14:44;11.25;;;4.15;;
48925;SDS011;39838;59.938;30.642;2023-04-24T12:17:11;13.88;;;3.92;;
48925;SDS011;39838;59.938;30.642;2023-04-24T12:19:44;15.80;;;4.63;;
48925;SDS011;39838;59.938;30.642;2023-04-24T12:22:13;15.15;;;4.03;;
48925;SDS011;39838;59.938;30.642;2023-04-24T12:27:26;11.25;;;4.18;;
48925;SDS011;39838;59.938;30.642;2023-04-24T12:29:55;12.75;;;4.32;;
48925;SDS011;39838;59.938;30.642;2023-04-24T12:32:23;11.43;;;4.43;;
48925;SDS011;39838;59.938;30.642;2023-04-24T12:34:51;17.02;;;4.97;;
48925;SDS011;39838;59.938;30.642;2023-04-24T12:37:21;13.43;;;4.70;;
48925;SDS011;39838;59.938;30.642;2023-04-24T12:40:03;13.80;;;4.75;;
48925;SDS011;39838;59.938;30.642;2023-04-24T12:42:32;15.93;;;4.38;;
48925;SDS011;39838;59.938;30.642;2023-04-24T12:45:01;13.38;;;4.50;;
48925;SDS011;39838;59.938;30.642;2023-04-24T12:47:30;14.73;;;4.55;;
48925;SDS011;39838;59.938;30.642;2023-04-24T12:49:58;9.23;;;4.72;;
48925;SDS011;39838;59.938;30.642;2023-04-24T12:52:27;11.10;;;4.90;;
48925;SDS011;39838;59.938;30.642;2023-04-24T12:54:55;18.65;;;5.00;;
48925;SDS011;39838;59.938;30.642;2023-04-24T12:57:24;9.18;;;4.70;;
48925;SDS011;39838;59.938;30.642;2023-04-24T12:59:54;16.50;;;5.85;;
48925;SDS011;39838;59.938;30.642;2023-04-24T13:02:22;15.57;;;5.53;;
48925;SDS011;39838;59.938;30.642;2023-04-24T13:04:49;18.20;;;5.68;;
48925;SDS011;39838;59.938;30.642;2023-04-24T13:07:17;19.20;;;5.38;;
48925;SDS011;39838;59.938;30.642;2023-04-24T13:09:47;14.38;;;5.60;;
48925;SDS011;39838;59.938;30.642;2023-04-24T13:12:15;17.77;;;6.30;;
48925;SDS011;39838;59.938;30.642;2023-04-24T13:14:42;17.20;;;5.10;;
48925;SDS011;39838;59.938;30.642;2023-04-24T13:17:10;17.65;;;5.45;;
48925;SDS011;39838;59.938;30.642;2023-04-24T13:19:38;14.65;;;5.07;;
48925;SDS011;39838;59.938;30.642;2023-04-24T13:22:08;18.77;;;5.90;;
48925;SDS011;39838;59.938;30.642;2023-04-24T13:24:36;11.77;;;5.13;;
48925;SDS011;39838;59.938;30.642;2023-04-24T13:27:06;18.35;;;5.45;;
48925;SDS011;39838;59.938;30.642;2023-04-24T13:29:34;14.30;;;5.75;;
48925;SDS011;39838;59.938;30.642;2023-04-24T13:32:01;17.85;;;5.95;;
48925;SDS011;39838;59.938;30.642;2023-04-24T13:34:28;8.80;;;4.93;;
48925;SDS011;39838;59.938;30.642;2023-04-24T13:36:56;9.63;;;4.88;;
48925;SDS011;39838;59.938;30.642;2023-04-24T13:39:24;14.43;;;5.53;;
48925;SDS011;39838;59.938;30.642;2023-04-24T13:41:52;8.25;;;5.00;;
48925;SDS011;39838;59.938;30.642;2023-04-24T13:44:22;7.20;;;5.18;;
48925;SDS011;39838;59.938;30.642;2023-04-24T13:46:52;10.90;;;4.60;;
48925;SDS011;39838;59.938;30.642;2023-04-24T13:49:22;11.45;;;4.68;;
48925;SDS011;39838;59.938;30.642;2023-04-24T13:51:51;15.95;;;5.00;;
48925;SDS011;39838;59.938;30.642;2023-04-24T13:54:19;13.73;;;5.30;;
48925;SDS011;39838;59.938;30.642;2023-04-24T13:56:46;12.88;;;4.95;;
48925;SDS011;39838;59.938;30.642;2023-04-24T13:59:13;12.82;;;5.03;;
48925;SDS011;39838;59.938;30.642;2023-04-24T14:01:42;13.02;;;5.15;;
48925;SDS011;39838;59.938;30.642;2023-04-24T14:04:10;13.50;;;5.30;;
48925;SDS011;39838;59.938;30.642;2023-04-24T14:06:37;18.60;;;5.55;;
48925;SDS011;39838;59.938;30.642;2023-04-24T14:09:05;22.00;;;6.25;;
48925;SDS011;39838;59.938;30.642;2023-04-24T14:11:33;13.77;;;5.60;;
48925;SDS011;39838;59.938;30.642;2023-04-24T14:14:00;10.93;;;5.07;;
48925;SDS011;39838;59.938;30.642;2023-04-24T14:16:28;16.58;;;5.63;;
48925;SDS011;39838;59.938;30.642;2023-04-24T14:18:57;16.35;;;5.60;;
48925;SDS011;39838;59.938;30.642;2023-04-24T14:21:24;12.68;;;5.22;;
48925;SDS011;39838;59.938;30.642;2023-04-24T14:23:52;10.02;;;5.75;;
48925;SDS011;39838;59.938;30.642;2023-04-24T14:26:20;11.98;;;5.80;;
48925;SDS011;39838;59.938;30.642;2023-04-24T14:28:47;18.70;;;5.82;;
48925;SDS011;39838;59.938;30.642;2023-04-24T14:31:14;22.35;;;6.20;;
48925;SDS011;39838;59.938;30.642;2023-04-24T14:33:41;11.63;;;5.53;;
48925;SDS011;39838;59.938;30.642;2023-04-24T14:36:10;15.68;;;5.25;;
48925;SDS011;39838;59.938;30.642;2023-04-24T14:38:37;14.73;;;5.38;;
48925;SDS011;39838;59.938;30.642;2023-04-24T14:41:04;12.27;;;5.68;;
48925;SDS011;39838;59.938;30.642;2023-04-24T14:43:34;13.23;;;5.28;;
48925;SDS011;39838;59.938;30.642;2023-04-24T14:46:02;12.07;;;5.57;;